createdAt,value
2016-12-12T00:00:01.860Z,22.58
2016-12-12T00:00:31.073Z,22.65
2016-12-12T00:01:01.333Z,22.6
2016-12-12T00:01:30.005Z,22.64
2016-12-12T00:01:59.253Z,22.6
2016-12-12T00:02:27.632Z,22.6
2016-12-12T00:02:56.360Z,22.6
2016-12-12T00:03:25.668Z,22.64
2016-12-12T00:03:53.794Z,22.61
2016-12-12T00:04:22.684Z,22.47
2016-12-12T00:04:51.630Z,22.51
2016-12-12T00:05:19.820Z,22.54
2016-12-12T00:05:48.852Z,22.52
2016-12-12T00:06:17.049Z,22.52
2016-12-12T00:06:46.844Z,22.42
2016-12-12T00:07:15.710Z,22.28
2016-12-12T00:07:43.879Z,22.33
2016-12-12T00:08:12.376Z,22.33
2016-12-12T00:08:41.054Z,22.35
2016-12-12T00:09:09.328Z,22.25
2016-12-12T00:09:37.817Z,22.15
2016-12-12T00:10:06.784Z,22.06
2016-12-12T00:10:35.279Z,22.09
2016-12-12T00:11:04.616Z,22.09
2016-12-12T00:11:33.547Z,21.96
2016-12-12T00:12:02.031Z,21.92
2016-12-12T00:12:30.851Z,21.84
2016-12-12T00:12:59.648Z,21.75
2016-12-12T00:13:29.032Z,21.72
2016-12-12T00:13:58.313Z,21.69
2016-12-12T00:14:27.324Z,21.74
2016-12-12T00:14:56.423Z,21.68
2016-12-12T00:15:25.783Z,21.68
2016-12-12T00:15:54.467Z,21.67
2016-12-12T00:16:23.505Z,21.59
2016-12-12T00:16:51.417Z,21.59
2016-12-12T00:17:20.028Z,21.47
2016-12-12T00:17:50.024Z,21.46
2016-12-12T00:18:18.549Z,21.53
2016-12-12T00:18:47.096Z,21.31
2016-12-12T00:19:16.929Z,21.35
2016-12-12T00:19:45.107Z,21.44
2016-12-12T00:20:14.615Z,21.31
2016-12-12T00:20:43.636Z,21.44
2016-12-12T00:21:12.671Z,21.43
2016-12-12T00:21:41.043Z,21.38
2016-12-12T00:22:09.753Z,21.32
2016-12-12T00:22:52.886Z,21.34
2016-12-12T00:23:22.186Z,21.32
2016-12-12T00:23:50.645Z,21.32
2016-12-12T00:24:18.627Z,21.37
2016-12-12T00:24:46.850Z,21.34
2016-12-12T00:25:15.482Z,21.29
2016-12-12T00:25:44.532Z,21.28
2016-12-12T00:26:13.707Z,21.27
2016-12-12T00:26:43.182Z,21.31
2016-12-12T00:27:11.379Z,21.32
2016-12-12T00:27:39.273Z,21.27
2016-12-12T00:28:07.523Z,21.24
2016-12-12T00:28:37.067Z,21.22
2016-12-12T00:29:05.339Z,21.14
2016-12-12T00:29:33.874Z,21.21
2016-12-12T00:30:03.178Z,21.21
2016-12-12T00:30:31.507Z,21.1
2016-12-12T00:31:00.951Z,21.16
2016-12-12T00:31:29.324Z,21.13
2016-12-12T00:31:57.871Z,21.19
2016-12-12T00:32:28.499Z,21.19
2016-12-12T00:32:56.904Z,21.14
2016-12-12T00:33:25.869Z,21.19
2016-12-12T00:33:54.395Z,21.24
2016-12-12T00:34:22.543Z,21.28
2016-12-12T00:35:35.436Z,21.25
2016-12-12T00:36:04.423Z,21.25
2016-12-12T00:36:32.601Z,21.25
2016-12-12T00:37:01.334Z,21.24
2016-12-12T00:37:30.046Z,21.19
2016-12-12T00:37:59.682Z,21.22
2016-12-12T00:38:28.907Z,21.09
2016-12-12T00:38:58.597Z,21.22
2016-12-12T00:39:26.758Z,21.24
2016-12-12T00:39:55.454Z,21.25
2016-12-12T00:40:25.582Z,21.28
2016-12-12T00:40:53.817Z,21.34
2016-12-12T00:41:22.553Z,21.28
2016-12-12T00:41:51.064Z,21.4
2016-12-12T00:42:19.747Z,21.4
2016-12-12T00:42:49.910Z,21.49
2016-12-12T00:43:18.961Z,21.44
2016-12-12T00:43:48.349Z,21.49
2016-12-12T00:44:17.143Z,21.38
2016-12-12T00:44:45.296Z,21.4
2016-12-12T00:45:14.197Z,21.4
2016-12-12T00:45:42.567Z,21.47
2016-12-12T00:46:10.652Z,21.47
2016-12-12T00:46:38.849Z,21.35
2016-12-12T00:47:07.325Z,21.42
2016-12-12T00:47:36.456Z,21.38
2016-12-12T00:48:05.406Z,21.35
2016-12-12T00:48:33.816Z,21.37
2016-12-12T00:49:03.855Z,21.31
2016-12-12T00:49:32.663Z,21.38
2016-12-12T00:50:01.089Z,21.42
2016-12-12T00:50:29.826Z,21.47
2016-12-12T00:50:58.287Z,21.43
2016-12-12T00:51:26.547Z,21.47
2016-12-12T00:51:55.829Z,21.4
2016-12-12T00:52:25.217Z,21.29
2016-12-12T00:52:54.599Z,21.38
2016-12-12T00:53:23.960Z,21.29
2016-12-12T00:53:52.467Z,21.34
2016-12-12T00:54:21.003Z,21.29
2016-12-12T00:54:50.743Z,21.31
2016-12-12T00:55:19.055Z,21.32
2016-12-12T00:55:49.382Z,21.35
2016-12-12T00:56:18.572Z,21.24
2016-12-12T00:56:48.422Z,21.19
2016-12-12T00:57:17.765Z,21.19
2016-12-12T00:57:48.075Z,21.24
2016-12-12T00:58:16.554Z,21.28
2016-12-12T00:58:45.148Z,21.24
2016-12-12T00:59:13.934Z,21.17
2016-12-12T00:59:42.733Z,21.27
2016-12-12T01:00:10.822Z,21.22
2016-12-12T01:00:38.982Z,21.27
2016-12-12T01:01:07.385Z,21.27
2016-12-12T01:01:35.888Z,21.29
2016-12-12T01:02:05.175Z,21.17
2016-12-12T01:02:33.847Z,21.28
2016-12-12T01:03:03.184Z,21.21
2016-12-12T01:03:31.727Z,21.22
2016-12-12T01:03:59.928Z,21.27
2016-12-12T01:04:29.247Z,21.29
2016-12-12T01:04:57.809Z,21.29
2016-12-12T01:05:26.181Z,21.34
2016-12-12T01:05:54.338Z,21.31
2016-12-12T01:06:22.849Z,21.25
2016-12-12T01:06:51.367Z,21.29
2016-12-12T01:07:20.639Z,21.25
2016-12-12T01:07:49.368Z,21.16
2016-12-12T01:08:18.045Z,21.24
2016-12-12T01:08:46.470Z,21.19
2016-12-12T01:09:15.421Z,21.28
2016-12-12T01:09:44.795Z,21.35
2016-12-12T01:10:14.268Z,21.35
2016-12-12T01:10:57.277Z,21.27
2016-12-12T01:11:26.630Z,21.28
2016-12-12T01:11:55.802Z,21.31
2016-12-12T01:12:24.817Z,21.44
2016-12-12T01:12:53.999Z,21.35
2016-12-12T01:13:22.457Z,21.44
2016-12-12T01:13:50.493Z,21.31
2016-12-12T01:14:18.697Z,21.34
2016-12-12T01:14:47.065Z,21.28
2016-12-12T01:15:59.557Z,21.52
2016-12-12T01:16:28.122Z,21.52
2016-12-12T01:16:56.555Z,21.59
2016-12-12T01:17:26.017Z,21.47
2016-12-12T01:17:54.685Z,21.47
2016-12-12T01:18:37.421Z,21.42
2016-12-12T01:19:05.519Z,21.42
2016-12-12T01:19:34.715Z,21.38
2016-12-12T01:20:02.859Z,21.31
2016-12-12T01:20:31.336Z,21.32
2016-12-12T01:21:00.518Z,21.34
2016-12-12T01:21:28.676Z,21.5
2016-12-12T01:21:56.994Z,21.5
2016-12-12T01:22:26.767Z,21.58
2016-12-12T01:22:55.190Z,21.49
2016-12-12T01:23:24.152Z,21.44
2016-12-12T01:23:52.953Z,21.56
2016-12-12T01:24:22.663Z,21.52
2016-12-12T01:24:51.163Z,21.61
2016-12-12T01:25:19.922Z,21.53
2016-12-12T01:25:49.149Z,21.44
2016-12-12T01:26:17.698Z,21.58
2016-12-12T01:26:46.193Z,21.58
2016-12-12T01:27:14.586Z,21.47
2016-12-12T01:27:43.861Z,21.53
2016-12-12T01:28:12.967Z,21.61
2016-12-12T01:28:41.356Z,21.44
2016-12-12T01:29:09.873Z,21.44
2016-12-12T01:29:38.501Z,21.46
2016-12-12T01:30:07.727Z,21.49
2016-12-12T01:30:36.380Z,21.44
2016-12-12T01:31:04.742Z,21.46
2016-12-12T01:31:33.155Z,21.54
2016-12-12T01:32:02.056Z,21.53
2016-12-12T01:32:32.334Z,21.56
2016-12-12T01:33:01.183Z,21.56
2016-12-12T01:33:29.984Z,21.54
2016-12-12T01:33:58.499Z,21.59
2016-12-12T01:34:27.687Z,21.68
2016-12-12T01:34:55.783Z,21.54
2016-12-12T01:35:24.639Z,21.62
2016-12-12T01:35:54.729Z,21.67
2016-12-12T01:36:23.511Z,21.68
2016-12-12T01:36:51.892Z,21.62
2016-12-12T01:37:20.074Z,21.68
2016-12-12T01:37:48.680Z,21.68
2016-12-12T01:38:17.166Z,21.65
2016-12-12T01:38:46.048Z,21.68
2016-12-12T01:39:14.036Z,21.59
2016-12-12T01:39:42.320Z,21.54
2016-12-12T01:40:11.406Z,21.64
2016-12-12T01:40:40.805Z,21.56
2016-12-12T01:41:09.129Z,21.56
2016-12-12T01:41:38.533Z,21.56
2016-12-12T01:42:07.003Z,21.65
2016-12-12T01:42:35.185Z,21.52
2016-12-12T01:43:03.708Z,21.72
2016-12-12T01:43:32.676Z,21.65
2016-12-12T01:44:01.529Z,21.75
2016-12-12T01:44:30.391Z,21.69
2016-12-12T01:44:58.791Z,21.67
2016-12-12T01:45:28.213Z,21.69
2016-12-12T01:45:58.201Z,21.74
2016-12-12T01:46:27.491Z,21.64
2016-12-12T01:46:56.304Z,21.65
2016-12-12T01:47:24.423Z,21.69
2016-12-12T01:47:53.275Z,21.72
2016-12-12T01:48:21.755Z,21.71
2016-12-12T01:48:50.140Z,21.67
2016-12-12T01:49:19.078Z,21.65
2016-12-12T01:49:47.549Z,21.71
2016-12-12T01:50:17.226Z,21.71
2016-12-12T01:50:46.055Z,21.64
2016-12-12T01:51:14.549Z,21.75
2016-12-12T01:51:42.962Z,21.65
2016-12-12T01:52:11.278Z,21.68
2016-12-12T01:52:39.415Z,21.74
2016-12-12T01:53:09.163Z,21.74
2016-12-12T01:53:38.700Z,21.71
2016-12-12T01:54:07.161Z,21.75
2016-12-12T01:54:35.658Z,21.74
2016-12-12T01:55:04.741Z,21.74
2016-12-12T01:56:18.632Z,21.8
2016-12-12T01:56:47.622Z,21.8
2016-12-12T01:57:16.296Z,21.79
2016-12-12T01:57:44.753Z,21.77
2016-12-12T01:58:14.332Z,21.71
2016-12-12T01:58:43.816Z,21.82
2016-12-12T01:59:12.717Z,21.83
2016-12-12T01:59:41.259Z,21.83
2016-12-12T02:00:11.043Z,21.82
2016-12-12T02:00:39.574Z,21.8
2016-12-12T02:01:08.532Z,21.82
2016-12-12T02:01:37.324Z,21.9
2016-12-12T02:02:06.661Z,21.83
2016-12-12T02:02:35.448Z,21.92
2016-12-12T02:03:03.880Z,21.9
2016-12-12T02:03:32.582Z,21.8
2016-12-12T02:04:00.921Z,21.96
2016-12-12T02:04:29.894Z,21.96
2016-12-12T02:04:59.931Z,21.91
2016-12-12T02:05:28.297Z,21.99
2016-12-12T02:05:56.906Z,22
2016-12-12T02:06:26.440Z,21.99
2016-12-12T02:06:56.763Z,22.02
2016-12-12T02:07:25.336Z,21.92
2016-12-12T02:07:55.096Z,22
2016-12-12T02:08:23.610Z,21.92
2016-12-12T02:08:52.062Z,22
2016-12-12T02:09:21.777Z,21.98
2016-12-12T02:09:51.600Z,21.99
2016-12-12T02:10:20.568Z,22.03
2016-12-12T02:10:50.892Z,22.03
2016-12-12T02:11:20.154Z,22.07
2016-12-12T02:11:48.353Z,22.05
2016-12-12T02:12:16.949Z,22.03
2016-12-12T02:12:46.679Z,22.05
2016-12-12T02:13:14.780Z,22.06
2016-12-12T02:13:43.855Z,22.05
2016-12-12T02:14:12.311Z,22
2016-12-12T02:14:41.108Z,22.02
2016-12-12T02:15:10.156Z,22.05
2016-12-12T02:15:38.355Z,22
2016-12-12T02:16:06.988Z,21.94
2016-12-12T02:16:35.744Z,21.98
2016-12-12T02:17:03.860Z,21.94
2016-12-12T02:17:32.036Z,21.92
2016-12-12T02:18:01.632Z,21.96
2016-12-12T02:18:30.240Z,21.96
2016-12-12T02:18:58.547Z,21.96
2016-12-12T02:19:27.175Z,21.96
2016-12-12T02:19:56.187Z,21.88
2016-12-12T02:20:25.585Z,21.72
2016-12-12T02:20:54.625Z,21.86
2016-12-12T02:21:24.344Z,21.86
2016-12-12T02:21:54.258Z,21.88
2016-12-12T02:22:23.505Z,21.83
2016-12-12T02:22:52.899Z,21.88
2016-12-12T02:23:21.671Z,21.82
2016-12-12T02:23:50.724Z,21.83
2016-12-12T02:24:19.456Z,21.75
2016-12-12T02:24:48.124Z,21.83
2016-12-12T02:25:16.632Z,21.86
2016-12-12T02:25:45.199Z,21.82
2016-12-12T02:26:14.939Z,21.68
2016-12-12T02:26:43.915Z,21.77
2016-12-12T02:27:12.587Z,21.75
2016-12-12T02:27:41.197Z,21.83
2016-12-12T02:28:09.618Z,21.72
2016-12-12T02:28:37.768Z,21.62
2016-12-12T02:29:07.534Z,21.71
2016-12-12T02:29:35.669Z,21.64
2016-12-12T02:30:04.508Z,21.67
2016-12-12T02:30:33.469Z,21.5
2016-12-12T02:31:01.876Z,21.56
2016-12-12T02:31:29.771Z,21.53
2016-12-12T02:31:58.936Z,21.52
2016-12-12T02:32:27.445Z,21.4
2016-12-12T02:32:56.015Z,21.43
2016-12-12T02:33:25.617Z,21.32
2016-12-12T02:33:55.482Z,21.38
2016-12-12T02:34:23.370Z,21.37
2016-12-12T02:34:51.865Z,21.37
2016-12-12T02:35:20.588Z,21.31
2016-12-12T02:36:26.935Z,21.27
2016-12-12T02:36:55.884Z,21.19
2016-12-12T02:37:24.916Z,21.24
2016-12-12T02:37:55.261Z,21.21
2016-12-12T02:38:24.281Z,21.19
2016-12-12T02:38:52.448Z,21.22
2016-12-12T02:39:20.802Z,21.25
2016-12-12T02:39:49.168Z,21.22
2016-12-12T02:40:19.467Z,21.25
2016-12-12T02:40:48.135Z,21.28
2016-12-12T02:41:16.217Z,21.34
2016-12-12T02:41:44.448Z,21.31
2016-12-12T02:42:13.552Z,21.38
2016-12-12T02:42:41.839Z,21.4
2016-12-12T02:43:11.607Z,21.38
2016-12-12T02:43:39.656Z,21.34
2016-12-12T02:44:09.284Z,21.28
2016-12-12T02:44:38.557Z,21.32
2016-12-12T02:45:07.137Z,21.31
2016-12-12T02:45:35.918Z,21.29
2016-12-12T02:46:06.097Z,21.22
2016-12-12T02:46:34.537Z,21.27
2016-12-12T02:47:03.919Z,21.28
2016-12-12T02:47:32.403Z,21.25
2016-12-12T02:48:02.045Z,21.17
2016-12-12T02:48:31.388Z,21.17
2016-12-12T02:49:00.351Z,21.32
2016-12-12T02:49:29.133Z,21.38
2016-12-12T02:49:58.590Z,21.35
2016-12-12T02:50:28.224Z,21.34
2016-12-12T02:50:56.632Z,21.34
2016-12-12T02:51:27.397Z,21.34
2016-12-12T02:51:56.290Z,21.31
2016-12-12T02:52:24.978Z,21.38
2016-12-12T02:52:54.230Z,21.4
2016-12-12T02:53:24.089Z,21.4
2016-12-12T02:53:52.638Z,21.52
2016-12-12T02:54:20.827Z,21.42
2016-12-12T02:54:49.478Z,21.49
2016-12-12T02:55:19.472Z,21.5
2016-12-12T02:55:48.221Z,21.47
2016-12-12T02:56:16.590Z,21.44
2016-12-12T02:56:45.828Z,21.43
2016-12-12T02:57:15.600Z,21.31
2016-12-12T02:57:44.204Z,21.31
2016-12-12T02:58:14.525Z,21.32
2016-12-12T02:58:42.781Z,21.35
2016-12-12T02:59:11.202Z,21.35
2016-12-12T02:59:39.423Z,21.29
2016-12-12T03:00:07.869Z,21.32
2016-12-12T03:00:37.956Z,21.28
2016-12-12T03:01:05.912Z,21.38
2016-12-12T03:01:35.001Z,21.4
2016-12-12T03:02:04.642Z,21.52
2016-12-12T03:02:33.350Z,21.38
2016-12-12T03:03:01.880Z,21.4
2016-12-12T03:03:31.617Z,21.38
2016-12-12T03:04:00.675Z,21.46
2016-12-12T03:04:29.257Z,21.47
2016-12-12T03:04:57.690Z,21.4
2016-12-12T03:05:26.322Z,21.47
2016-12-12T03:05:54.603Z,21.43
2016-12-12T03:06:23.685Z,21.47
2016-12-12T03:06:52.197Z,21.38
2016-12-12T03:07:21.422Z,21.42
2016-12-12T03:07:51.001Z,21.43
2016-12-12T03:08:19.641Z,21.43
2016-12-12T03:08:47.772Z,21.38
2016-12-12T03:09:17.372Z,21.4
2016-12-12T03:09:45.859Z,21.52
2016-12-12T03:10:14.932Z,21.5
2016-12-12T03:10:43.457Z,21.52
2016-12-12T03:11:13.275Z,21.4
2016-12-12T03:11:42.155Z,21.34
2016-12-12T03:12:10.994Z,21.4
2016-12-12T03:12:39.457Z,21.43
2016-12-12T03:13:09.475Z,21.29
2016-12-12T03:13:38.897Z,21.34
2016-12-12T03:14:07.591Z,21.31
2016-12-12T03:14:36.154Z,21.29
2016-12-12T03:15:04.544Z,21.34
2016-12-12T03:15:32.883Z,21.29
2016-12-12T03:16:39.671Z,21.28
2016-12-12T03:17:08.159Z,21.38
2016-12-12T03:17:36.592Z,21.37
2016-12-12T03:18:05.644Z,21.35
2016-12-12T03:18:34.689Z,21.31
2016-12-12T03:19:03.160Z,21.35
2016-12-12T03:19:31.700Z,21.31
2016-12-12T03:20:00.953Z,21.29
2016-12-12T03:20:30.547Z,21.35
2016-12-12T03:20:59.802Z,21.31
2016-12-12T03:21:29.253Z,21.32
2016-12-12T03:21:57.548Z,21.32
2016-12-12T03:22:26.101Z,21.34
2016-12-12T03:22:54.313Z,21.38
2016-12-12T03:23:23.221Z,21.29
2016-12-12T03:23:53.869Z,21.35
2016-12-12T03:24:22.369Z,21.34
2016-12-12T03:24:50.644Z,21.35
2016-12-12T03:25:19.956Z,21.31
2016-12-12T03:25:48.250Z,21.38
2016-12-12T03:26:17.640Z,21.38
2016-12-12T03:26:47.418Z,21.42
2016-12-12T03:27:16.048Z,21.47
2016-12-12T03:27:44.793Z,21.34
2016-12-12T03:28:14.464Z,21.46
2016-12-12T03:28:44.233Z,21.5
2016-12-12T03:29:12.865Z,21.29
2016-12-12T03:29:41.302Z,21.29
2016-12-12T03:30:09.325Z,21.34
2016-12-12T03:30:39.662Z,21.29
2016-12-12T03:31:07.806Z,21.35
2016-12-12T03:31:36.168Z,21.34
2016-12-12T03:32:05.535Z,21.35
2016-12-12T03:32:35.183Z,21.29
2016-12-12T03:33:03.798Z,21.28
2016-12-12T03:33:32.184Z,21.28
2016-12-12T03:34:01.394Z,21.34
2016-12-12T03:34:30.699Z,21.34
2016-12-12T03:34:59.004Z,21.38
2016-12-12T03:35:28.190Z,21.31
2016-12-12T03:35:56.610Z,21.29
2016-12-12T03:36:24.587Z,21.28
2016-12-12T03:36:53.271Z,21.32
2016-12-12T03:37:21.721Z,21.35
2016-12-12T03:37:50.169Z,21.42
2016-12-12T03:38:18.356Z,21.43
2016-12-12T03:38:47.505Z,21.43
2016-12-12T03:39:17.192Z,21.46
2016-12-12T03:39:46.665Z,21.42
2016-12-12T03:40:14.802Z,21.46
2016-12-12T03:40:44.028Z,21.42
2016-12-12T03:41:12.162Z,21.38
2016-12-12T03:41:40.988Z,21.4
2016-12-12T03:42:09.494Z,21.38
2016-12-12T03:42:39.084Z,21.35
2016-12-12T03:43:07.870Z,21.38
2016-12-12T03:43:35.968Z,21.4
2016-12-12T03:44:04.383Z,21.29
2016-12-12T03:44:32.899Z,21.38
2016-12-12T03:45:01.168Z,21.35
2016-12-12T03:45:29.145Z,21.35
2016-12-12T03:45:59.252Z,21.32
2016-12-12T03:46:27.675Z,21.4
2016-12-12T03:46:56.058Z,21.37
2016-12-12T03:47:24.547Z,21.28
2016-12-12T03:47:52.716Z,21.4
2016-12-12T03:48:21.307Z,21.38
2016-12-12T03:48:50.000Z,21.34
2016-12-12T03:49:18.607Z,21.29
2016-12-12T03:49:48.565Z,21.46
2016-12-12T03:50:18.332Z,21.47
2016-12-12T03:50:47.660Z,21.49
2016-12-12T03:51:17.692Z,21.4
2016-12-12T03:51:47.111Z,21.42
2016-12-12T03:52:17.006Z,21.42
2016-12-12T03:52:46.537Z,21.34
2016-12-12T03:53:15.324Z,21.38
2016-12-12T03:53:43.703Z,21.49
2016-12-12T03:54:12.265Z,21.49
2016-12-12T03:54:41.658Z,21.43
2016-12-12T03:55:09.821Z,21.5
2016-12-12T03:55:38.300Z,21.5
2016-12-12T03:56:44.771Z,21.44
2016-12-12T03:57:13.288Z,21.49
2016-12-12T03:57:41.630Z,21.47
2016-12-12T03:58:10.009Z,21.52
2016-12-12T03:58:39.226Z,21.5
2016-12-12T03:59:07.564Z,21.54
2016-12-12T03:59:36.596Z,21.49
2016-12-12T04:00:04.858Z,21.44
2016-12-12T04:00:33.959Z,21.58
2016-12-12T04:01:02.100Z,21.53
2016-12-12T04:01:30.494Z,21.59
2016-12-12T04:01:59.621Z,21.52
2016-12-12T04:02:28.203Z,21.42
2016-12-12T04:02:57.810Z,21.44
2016-12-12T04:03:26.234Z,21.44
2016-12-12T04:03:55.819Z,21.47
2016-12-12T04:04:24.169Z,21.5
2016-12-12T04:04:53.379Z,21.47
2016-12-12T04:05:22.587Z,21.4
2016-12-12T04:05:50.800Z,21.46
2016-12-12T04:06:20.320Z,21.42
2016-12-12T04:06:51.372Z,21.44
